createdAt,value
2019-05-09T00:01:06.788Z,92.90
2019-05-09T00:03:33.736Z,94.00
2019-05-09T00:06:00.702Z,93.90
2019-05-09T00:08:27.659Z,93.90
2019-05-09T00:10:54.620Z,93.90
2019-05-09T00:13:23.661Z,94.00
2019-05-09T00:15:48.731Z,94.00
2019-05-09T00:18:15.707Z,94.10
2019-05-09T00:20:47.325Z,94.10
2019-05-09T00:23:14.289Z,94.10
2019-05-09T00:25:43.151Z,94.50
2019-05-09T00:28:08.178Z,94.10
2019-05-09T00:30:54.151Z,94.10
2019-05-09T00:33:23.744Z,94.20
2019-05-09T00:35:53.298Z,94.00
2019-05-09T00:38:19.365Z,94.20
2019-05-09T00:40:55.947Z,93.90
2019-05-09T00:43:13.341Z,93.80
2019-05-09T00:46:00.817Z,93.70
2019-05-09T00:48:33.656Z,93.80
2019-05-09T00:50:58.923Z,93.70
2019-05-09T00:53:25.894Z,94.40
2019-05-09T00:55:53.090Z,93.50
2019-05-09T00:58:19.832Z,93.60
2019-05-09T01:00:46.791Z,92.90
2019-05-09T01:03:14.304Z,92.90
2019-05-09T01:05:40.681Z,92.90
2019-05-09T01:08:07.644Z,92.80
2019-05-09T01:10:34.603Z,92.70
2019-05-09T01:13:03.516Z,92.60
2019-05-09T01:15:28.523Z,92.40
2019-05-09T01:17:55.511Z,92.50
2019-05-09T01:20:24.217Z,92.30
2019-05-09T01:22:49.459Z,92.30
2019-05-09T01:25:16.409Z,92.10
2019-05-09T01:27:43.367Z,91.90
2019-05-09T01:30:10.329Z,91.80
2019-05-09T01:32:49.579Z,91.90
2019-05-09T01:35:16.542Z,91.30
2019-05-09T01:37:43.522Z,91.30
2019-05-09T01:40:10.472Z,91.30
2019-05-09T01:42:37.440Z,91.00
2019-05-09T01:45:04.438Z,91.20
2019-05-09T01:47:31.380Z,91.20
2019-05-09T01:49:58.423Z,91.20
2019-05-09T01:52:25.375Z,90.90
2019-05-09T01:54:54.143Z,91.20
2019-05-09T01:57:19.289Z,91.50
2019-05-09T01:59:46.232Z,91.40
2019-05-09T02:02:14.178Z,91.40
2019-05-09T02:04:40.158Z,91.50
2019-05-09T02:07:07.101Z,91.60
2019-05-09T02:09:34.513Z,91.80
2019-05-09T02:12:01.008Z,92.10
2019-05-09T02:14:34.353Z,92.10
2019-05-09T02:17:10.435Z,92.20
2019-05-09T02:19:39.503Z,92.20
2019-05-09T02:22:26.125Z,92.20
2019-05-09T02:24:53.549Z,92.40
2019-05-09T02:27:23.731Z,92.50
2019-05-09T02:29:48.536Z,92.60
2019-05-09T02:32:15.521Z,92.80
2019-05-09T02:34:44.317Z,92.80
2019-05-09T02:37:10.160Z,92.60
2019-05-09T02:39:39.421Z,92.20
2019-05-09T02:42:09.141Z,92.10
2019-05-09T02:44:31.037Z,92.10
2019-05-09T02:47:04.774Z,92.10
2019-05-09T02:49:31.748Z,92.10
2019-05-09T02:51:59.348Z,92.30
2019-05-09T02:54:25.660Z,92.40
2019-05-09T02:56:52.624Z,92.50
2019-05-09T02:59:34.499Z,92.60
2019-05-09T03:02:09.764Z,92.60
2019-05-09T03:04:39.104Z,92.60
2019-05-09T03:07:03.441Z,92.60
2019-05-09T03:09:30.417Z,92.70
2019-05-09T03:11:58.962Z,92.90
2019-05-09T03:14:24.376Z,93.10
2019-05-09T03:16:51.358Z,93.30
2019-05-09T03:19:19.526Z,93.40
2019-05-09T03:21:49.627Z,93.50
2019-05-09T03:24:18.548Z,93.40
2019-05-09T03:26:45.468Z,93.50
2019-05-09T03:29:19.078Z,93.60
2019-05-09T03:31:44.533Z,93.40
2019-05-09T03:34:11.488Z,93.40
2019-05-09T03:36:39.903Z,93.60
2019-05-09T03:39:08.167Z,93.30
2019-05-09T03:41:34.033Z,93.30
2019-05-09T03:44:01.052Z,93.50
2019-05-09T03:46:33.734Z,93.30
2019-05-09T03:49:00.766Z,93.30
2019-05-09T03:51:27.717Z,93.30
2019-05-09T03:53:54.666Z,93.40
2019-05-09T03:56:24.349Z,93.50
2019-05-09T03:58:51.307Z,93.20
2019-05-09T04:01:18.250Z,93.20
2019-05-09T04:03:45.209Z,93.20
2019-05-09T04:06:12.171Z,93.30
2019-05-09T04:08:39.138Z,93.40
2019-05-09T04:11:08.376Z,93.50
2019-05-09T04:13:38.385Z,93.60
2019-05-09T04:16:03.310Z,93.60
2019-05-09T04:18:30.243Z,93.50
2019-05-09T04:20:57.418Z,93.70
2019-05-09T04:23:24.187Z,93.70
2019-05-09T04:25:58.418Z,93.60
2019-05-09T04:28:27.272Z,93.60
2019-05-09T04:30:52.283Z,93.50
2019-05-09T04:33:19.245Z,93.10
2019-05-09T04:35:47.570Z,93.60
2019-05-09T04:38:13.927Z,94.10
2019-05-09T04:40:44.713Z,93.80
2019-05-09T04:43:15.415Z,93.70
2019-05-09T04:45:41.727Z,93.90
2019-05-09T04:48:07.646Z,94.20
2019-05-09T04:50:32.525Z,94.60
2019-05-09T04:52:59.485Z,94.10
2019-05-09T04:55:27.322Z,94.00
2019-05-09T04:57:53.435Z,93.70
2019-05-09T05:00:24.685Z,93.60
2019-05-09T05:02:51.744Z,93.50
2019-05-09T05:05:18.712Z,93.40
2019-05-09T05:07:47.936Z,93.10
2019-05-09T05:10:12.739Z,93.30
2019-05-09T05:12:39.704Z,93.00
2019-05-09T05:15:08.013Z,93.00
2019-05-09T05:17:33.644Z,92.40
2019-05-09T05:20:00.616Z,92.00
2019-05-09T05:22:32.546Z,92.00
2019-05-09T05:25:01.667Z,91.90
2019-05-09T05:27:28.638Z,91.70
2019-05-09T05:29:57.966Z,91.70
2019-05-09T05:32:28.279Z,91.40
2019-05-09T05:35:00.684Z,91.00
2019-05-09T05:37:28.147Z,91.30
2019-05-09T05:39:54.859Z,91.10
2019-05-09T05:42:22.310Z,90.70
2019-05-09T05:44:48.948Z,91.00
2019-05-09T05:47:29.370Z,90.80
2019-05-09T05:49:57.633Z,90.40
2019-05-09T05:52:22.348Z,90.50
2019-05-09T05:54:49.304Z,90.00
2019-05-09T05:57:17.686Z,90.40
2019-05-09T05:59:43.211Z,90.30
2019-05-09T06:02:10.174Z,89.90
2019-05-09T06:04:38.120Z,90.00
2019-05-09T06:07:04.091Z,90.20
2019-05-09T06:09:31.051Z,90.20
2019-05-09T06:11:58.018Z,90.20
2019-05-09T06:14:24.967Z,90.00
2019-05-09T06:16:51.945Z,88.90
2019-05-09T06:19:18.909Z,88.30
2019-05-09T06:21:47.952Z,89.50
2019-05-09T06:24:12.880Z,89.10
2019-05-09T06:26:39.843Z,89.60
2019-05-09T06:29:08.113Z,89.70
2019-05-09T06:31:33.801Z,89.50
2019-05-09T06:34:00.753Z,89.90
2019-05-09T06:36:28.372Z,89.70
2019-05-09T06:38:54.685Z,88.70
2019-05-09T06:41:22.982Z,88.90
2019-05-09T06:43:52.840Z,88.30
2019-05-09T06:46:39.480Z,88.20
2019-05-09T06:49:26.136Z,87.60
2019-05-09T06:51:38.740Z,87.80
2019-05-09T06:54:04.616Z,87.10
2019-05-09T06:56:31.562Z,87.00
2019-05-09T06:58:58.516Z,87.40
2019-05-09T07:01:37.574Z,87.20
2019-05-09T07:04:09.586Z,88.00
2019-05-09T07:06:40.647Z,87.10
2019-05-09T07:09:12.592Z,86.50
2019-05-09T07:11:39.547Z,84.40
2019-05-09T07:14:08.372Z,83.60
2019-05-09T07:16:33.479Z,81.00
2019-05-09T07:19:00.450Z,81.50
2019-05-09T07:21:48.531Z,78.50
2019-05-09T07:24:14.072Z,78.90
2019-05-09T07:26:41.017Z,79.00
2019-05-09T07:29:07.988Z,79.70
2019-05-09T07:31:40.708Z,80.30
2019-05-09T07:34:18.433Z,81.60
2019-05-09T07:36:43.656Z,82.30
2019-05-09T07:39:10.607Z,82.40
2019-05-09T07:41:38.364Z,82.20
2019-05-09T07:44:04.759Z,83.70
2019-05-09T07:46:33.235Z,82.10
2019-05-09T07:49:01.986Z,81.90
2019-05-09T07:51:28.941Z,82.00
2019-05-09T07:53:55.900Z,81.90
2019-05-09T07:56:22.869Z,81.10
2019-05-09T07:58:49.831Z,80.20
2019-05-09T08:01:19.115Z,80.30
2019-05-09T08:03:43.843Z,80.60
2019-05-09T08:06:10.765Z,80.20
2019-05-09T08:08:38.445Z,79.90
2019-05-09T08:11:04.731Z,80.00
2019-05-09T08:13:31.694Z,79.70
2019-05-09T08:15:58.790Z,79.00
2019-05-09T08:18:28.033Z,78.10
2019-05-09T08:20:52.652Z,79.20
2019-05-09T08:23:19.619Z,80.10
2019-05-09T08:25:48.510Z,81.00
2019-05-09T08:28:13.563Z,80.50
2019-05-09T08:30:40.664Z,80.90
2019-05-09T08:33:08.422Z,78.70
2019-05-09T08:35:34.512Z,80.80
2019-05-09T08:38:01.457Z,79.50
2019-05-09T08:40:28.693Z,81.60
2019-05-09T08:42:55.796Z,81.30
2019-05-09T08:45:27.670Z,84.60
2019-05-09T08:47:49.791Z,86.40
2019-05-09T08:50:22.113Z,88.70
2019-05-09T08:52:49.081Z,89.20
2019-05-09T08:55:17.488Z,86.20
2019-05-09T08:57:43.019Z,87.00
2019-05-09T09:00:10.176Z,88.40
2019-05-09T09:02:37.746Z,86.80
2019-05-09T09:05:04.234Z,85.50
2019-05-09T09:07:31.164Z,85.10
2019-05-09T09:09:58.105Z,86.30
2019-05-09T09:12:31.367Z,86.70
2019-05-09T09:14:52.021Z,87.50
2019-05-09T09:17:19.000Z,89.10
2019-05-09T09:19:47.875Z,89.00
2019-05-09T09:22:12.932Z,89.70
2019-05-09T09:24:39.860Z,90.60
2019-05-09T09:27:07.686Z,90.50
2019-05-09T09:29:33.784Z,90.90
2019-05-09T09:32:00.728Z,90.80
2019-05-09T09:34:29.973Z,91.40
2019-05-09T09:36:54.564Z,90.60
2019-05-09T09:39:21.566Z,90.40
2019-05-09T09:41:48.522Z,90.60
2019-05-09T09:44:18.240Z,90.90
2019-05-09T09:46:43.567Z,89.80
2019-05-09T09:49:10.487Z,90.50
2019-05-09T09:51:38.199Z,90.10
2019-05-09T09:54:04.388Z,89.90
2019-05-09T09:56:31.313Z,89.80
2019-05-09T09:59:09.364Z,88.80
2019-05-09T10:01:39.046Z,87.30
2019-05-09T10:04:19.574Z,86.90
2019-05-09T10:06:38.841Z,84.60
2019-05-09T10:09:09.186Z,84.20
2019-05-09T10:11:32.992Z,82.00
2019-05-09T10:13:59.916Z,80.40
2019-05-09T10:16:39.044Z,80.40
2019-05-09T10:19:12.616Z,81.40
2019-05-09T10:21:43.962Z,79.80
2019-05-09T10:24:10.885Z,80.90
2019-05-09T10:26:39.093Z,78.90
2019-05-09T10:29:05.820Z,78.20
2019-05-09T10:31:32.747Z,78.70
2019-05-09T10:33:59.673Z,78.70
2019-05-09T10:36:27.846Z,77.90
2019-05-09T10:38:53.540Z,77.00
2019-05-09T10:41:20.477Z,78.20
2019-05-09T10:43:58.037Z,78.60
2019-05-09T10:46:48.368Z,77.50
2019-05-09T10:49:00.883Z,78.40
2019-05-09T10:51:27.888Z,77.50
2019-05-09T10:53:54.798Z,77.40
2019-05-09T10:56:21.753Z,76.00
2019-05-09T10:58:48.676Z,74.90
2019-05-09T11:01:18.220Z,74.80
2019-05-09T11:03:42.609Z,75.40
2019-05-09T11:06:09.533Z,76.50
2019-05-09T11:08:38.074Z,77.30
2019-05-09T11:11:06.051Z,75.80
2019-05-09T11:13:30.364Z,75.70
2019-05-09T11:15:58.263Z,74.30
2019-05-09T11:18:24.256Z,72.70
2019-05-09T11:20:51.186Z,71.10
2019-05-09T11:23:19.381Z,71.00
2019-05-09T11:25:47.194Z,71.10
2019-05-09T11:28:14.998Z,70.40
2019-05-09T11:30:38.986Z,71.80
2019-05-09T11:33:07.849Z,71.70
2019-05-09T11:35:32.832Z,69.80
2019-05-09T11:37:59.753Z,69.80
2019-05-09T11:40:28.161Z,71.20
2019-05-09T11:42:53.665Z,71.10
2019-05-09T11:45:20.592Z,72.70
2019-05-09T11:47:48.728Z,73.20
2019-05-09T11:50:19.785Z,75.40
2019-05-09T11:52:42.603Z,75.70
2019-05-09T11:55:28.639Z,77.40
2019-05-09T11:57:38.443Z,78.00
2019-05-09T12:00:04.442Z,77.50
2019-05-09T12:02:31.400Z,76.90
2019-05-09T12:04:58.322Z,77.40
2019-05-09T12:07:25.254Z,76.40
2019-05-09T12:09:52.222Z,79.00
2019-05-09T12:12:19.642Z,80.10
2019-05-09T12:14:48.228Z,82.30
2019-05-09T12:17:13.062Z,82.00
2019-05-09T12:19:39.990Z,83.70
2019-05-09T12:22:08.903Z,85.80
2019-05-09T12:24:33.965Z,85.20
2019-05-09T12:27:03.137Z,86.40
2019-05-09T12:29:28.764Z,85.60
2019-05-09T12:31:54.816Z,87.80
2019-05-09T12:34:21.751Z,86.50
2019-05-09T12:36:49.748Z,85.30
2019-05-09T12:39:18.549Z,86.40
2019-05-09T12:41:42.520Z,85.00
2019-05-09T12:44:09.485Z,85.40
2019-05-09T12:46:39.409Z,84.70
2019-05-09T12:49:03.700Z,85.20
2019-05-09T12:51:30.654Z,84.70
2019-05-09T12:53:57.968Z,85.00
2019-05-09T12:56:24.501Z,85.20
2019-05-09T12:58:51.420Z,84.60
2019-05-09T13:01:19.010Z,84.80
2019-05-09T13:03:45.319Z,84.60
2019-05-09T13:06:12.241Z,84.40
2019-05-09T13:08:39.187Z,84.20
2019-05-09T13:11:08.026Z,84.50
2019-05-09T13:13:33.260Z,84.00
2019-05-09T13:16:05.329Z,84.80
2019-05-09T13:18:52.640Z,84.90
2019-05-09T13:21:19.581Z,85.40
2019-05-09T13:23:51.844Z,85.00
2019-05-09T13:26:13.464Z,84.50
2019-05-09T13:28:40.399Z,84.20
2019-05-09T13:31:08.246Z,85.20
2019-05-09T13:33:34.281Z,84.70
2019-05-09T13:36:01.230Z,84.80
2019-05-09T13:38:28.164Z,85.20
2019-05-09T13:40:58.243Z,85.90
2019-05-09T13:43:22.008Z,85.90
2019-05-09T13:45:48.976Z,86.40
2019-05-09T13:48:28.280Z,86.70
2019-05-09T13:50:43.208Z,86.70
2019-05-09T13:53:10.136Z,86.70
2019-05-09T13:55:38.080Z,87.40
2019-05-09T13:58:04.019Z,88.40
2019-05-09T14:00:31.190Z,88.20
2019-05-09T14:02:58.133Z,88.80
2019-05-09T14:05:25.093Z,90.10
2019-05-09T14:07:55.162Z,89.30
2019-05-09T14:10:18.941Z,90.00
2019-05-09T14:13:01.978Z,88.90
2019-05-09T14:15:12.801Z,88.90
2019-05-09T14:17:48.653Z,87.80
2019-05-09T14:20:08.903Z,88.40
2019-05-09T14:22:33.654Z,89.10
2019-05-09T14:25:00.768Z,89.50
2019-05-09T14:27:28.579Z,88.70
2019-05-09T14:29:54.653Z,88.90
2019-05-09T14:32:21.582Z,89.40
2019-05-09T14:34:48.547Z,86.80
2019-05-09T14:37:17.804Z,86.60
2019-05-09T14:39:54.915Z,85.80
2019-05-09T14:42:09.377Z,86.40
2019-05-09T14:44:37.715Z,86.50
2019-05-09T14:47:03.232Z,85.80
2019-05-09T14:49:40.450Z,85.90
2019-05-09T14:51:58.047Z,84.30
2019-05-09T14:54:24.741Z,85.10
2019-05-09T14:56:51.692Z,85.30
2019-05-09T14:59:18.874Z,86.00
2019-05-09T15:01:45.592Z,85.60
2019-05-09T15:04:12.524Z,87.50
2019-05-09T15:06:39.448Z,85.50
2019-05-09T15:09:08.221Z,85.20
2019-05-09T15:11:34.341Z,85.80
2019-05-09T15:14:01.253Z,86.30
2019-05-09T15:16:28.453Z,86.90
2019-05-09T15:18:55.125Z,88.20
2019-05-09T15:21:22.105Z,89.90
2019-05-09T15:23:48.968Z,90.50
2019-05-09T15:26:17.696Z,90.20
2019-05-09T15:28:42.872Z,90.70
2019-05-09T15:31:09.805Z,91.70
2019-05-09T15:33:37.559Z,91.60
2019-05-09T15:36:03.723Z,92.70
2019-05-09T15:38:30.652Z,92.50
2019-05-09T15:40:57.826Z,92.10
2019-05-09T15:43:24.552Z,92.60
2019-05-09T15:45:58.175Z,92.30
2019-05-09T15:48:24.485Z,91.70
2019-05-09T15:50:51.454Z,91.70
2019-05-09T15:53:18.595Z,91.90
2019-05-09T15:55:47.845Z,91.80
2019-05-09T15:58:12.398Z,92.50
2019-05-09T16:00:39.340Z,92.30
2019-05-09T16:03:06.275Z,92.70
2019-05-09T16:05:33.501Z,92.30
2019-05-09T16:08:00.430Z,92.40
2019-05-09T16:10:28.324Z,92.30
2019-05-09T16:12:54.332Z,91.90
2019-05-09T16:15:21.276Z,91.50
2019-05-09T16:17:48.644Z,91.40
2019-05-09T16:20:17.914Z,90.90
2019-05-09T16:22:42.144Z,90.80
2019-05-09T16:25:09.123Z,91.10
2019-05-09T16:27:37.982Z,91.60
2019-05-09T16:30:03.412Z,92.50
2019-05-09T16:32:30.356Z,91.80
2019-05-09T16:34:57.304Z,92.40
2019-05-09T16:37:24.233Z,92.60
2019-05-09T16:39:51.191Z,93.60
2019-05-09T16:42:18.121Z,93.80
2019-05-09T16:44:45.060Z,94.20
2019-05-09T16:47:12.128Z,94.10
2019-05-09T16:49:39.045Z,94.00
2019-05-09T16:52:07.446Z,94.40
2019-05-09T16:54:35.123Z,94.60
2019-05-09T16:57:02.044Z,94.10
2019-05-09T16:59:28.964Z,93.90
2019-05-09T17:01:57.823Z,93.10
2019-05-09T17:04:22.883Z,92.10
2019-05-09T17:06:49.988Z,92.20
2019-05-09T17:09:18.088Z,92.40
2019-05-09T17:11:43.766Z,91.40
2019-05-09T17:14:10.699Z,92.10
2019-05-09T17:16:37.815Z,92.10
2019-05-09T17:19:04.757Z,92.90
2019-05-09T17:21:39.907Z,92.60
2019-05-09T17:24:09.680Z,92.70
2019-05-09T17:26:37.919Z,93.10
2019-05-09T17:29:03.561Z,93.30
2019-05-09T17:31:30.494Z,93.00
2019-05-09T17:33:58.034Z,92.60
2019-05-09T17:36:24.396Z,93.10
2019-05-09T17:38:51.316Z,92.80
2019-05-09T17:41:18.261Z,93.40
2019-05-09T17:43:47.331Z,93.00
2019-05-09T17:46:12.158Z,92.50
2019-05-09T17:48:39.148Z,92.20
2019-05-09T17:51:08.331Z,92.20
2019-05-09T17:53:34.056Z,92.30
2019-05-09T17:56:02.872Z,92.10
2019-05-09T17:58:33.303Z,92.50
2019-05-09T18:00:57.689Z,92.20
2019-05-09T18:03:23.685Z,91.90
2019-05-09T18:05:50.606Z,91.90
2019-05-09T18:08:18.717Z,92.10
2019-05-09T18:10:44.467Z,92.10
2019-05-09T18:13:11.436Z,92.20
2019-05-09T18:15:38.383Z,93.50
2019-05-09T18:18:05.325Z,93.10
2019-05-09T18:20:32.264Z,93.60
2019-05-09T18:22:59.214Z,94.10
2019-05-09T18:25:26.189Z,94.00
2019-05-09T18:27:53.264Z,94.40
2019-05-09T18:30:20.176Z,95.00
2019-05-09T18:32:53.224Z,93.80
2019-05-09T18:35:21.211Z,93.70
2019-05-09T18:37:48.293Z,94.00
2019-05-09T18:40:17.729Z,94.10
2019-05-09T18:42:42.054Z,94.30
2019-05-09T18:45:09.000Z,93.80
2019-05-09T18:47:35.924Z,94.00
2019-05-09T18:50:03.138Z,94.10
2019-05-09T18:52:30.078Z,94.10
2019-05-09T18:54:56.989Z,94.00
2019-05-09T18:57:25.659Z,94.10
2019-05-09T18:59:52.580Z,94.10
2019-05-09T19:02:19.505Z,93.90
2019-05-09T19:04:46.504Z,94.20
2019-05-09T19:07:21.761Z,94.20
2019-05-09T19:09:40.408Z,94.10
2019-05-09T19:12:07.353Z,93.80
2019-05-09T19:14:34.273Z,93.70
2019-05-09T19:17:25.873Z,93.60
2019-05-09T19:20:00.057Z,93.50
2019-05-09T19:22:27.015Z,93.70
2019-05-09T19:24:53.936Z,93.50
2019-05-09T19:27:20.872Z,92.80
2019-05-09T19:29:47.824Z,93.60
2019-05-09T19:32:14.752Z,93.50
2019-05-09T19:34:41.705Z,93.50
2019-05-09T19:37:08.645Z,93.50
2019-05-09T19:39:35.634Z,93.60
2019-05-09T19:42:02.600Z,93.60
2019-05-09T19:44:29.581Z,93.60
2019-05-09T19:46:56.590Z,93.50
2019-05-09T19:49:23.529Z,93.20
2019-05-09T19:51:50.489Z,93.10
2019-05-09T19:54:17.448Z,93.10
2019-05-09T19:56:44.397Z,92.90
2019-05-09T19:59:13.760Z,93.30
2019-05-09T20:01:40.755Z,93.00
2019-05-09T20:04:07.744Z,92.90
2019-05-09T20:06:34.698Z,93.00
2019-05-09T20:09:02.144Z,92.80
2019-05-09T20:11:37.880Z,92.50
2019-05-09T20:14:11.000Z,93.10
2019-05-09T20:16:39.747Z,92.70
2019-05-09T20:19:06.710Z,92.60
2019-05-09T20:21:33.646Z,92.50
2019-05-09T20:24:00.615Z,92.40
2019-05-09T20:26:27.547Z,92.90
2019-05-09T20:28:54.522Z,92.90
2019-05-09T20:31:21.498Z,92.80
2019-05-09T20:33:48.442Z,92.90
2019-05-09T20:36:15.411Z,92.90
2019-05-09T20:38:42.407Z,92.80
2019-05-09T20:41:09.329Z,93.00
2019-05-09T20:43:36.281Z,92.70
2019-05-09T20:46:03.238Z,92.60
2019-05-09T20:48:30.170Z,92.50
2019-05-09T20:50:57.195Z,92.40
2019-05-09T20:53:24.184Z,92.40
2019-05-09T20:55:51.274Z,92.50
2019-05-09T20:58:18.209Z,92.20
2019-05-09T21:00:46.324Z,92.30
2019-05-09T21:03:13.259Z,92.30
2019-05-09T21:05:40.225Z,92.50
2019-05-09T21:08:07.200Z,92.50
2019-05-09T21:10:34.145Z,92.50
2019-05-09T21:13:01.055Z,92.60
2019-05-09T21:15:28.004Z,92.60
2019-05-09T21:17:54.942Z,92.80
2019-05-09T21:20:21.921Z,92.60
2019-05-09T21:22:48.852Z,92.70
2019-05-09T21:25:15.772Z,92.90
2019-05-09T21:27:42.723Z,92.80
2019-05-09T21:30:09.661Z,93.00
2019-05-09T21:32:36.576Z,93.10
2019-05-09T21:35:03.587Z,93.20
2019-05-09T21:37:30.544Z,93.00
2019-05-09T21:39:57.484Z,93.00
2019-05-09T21:42:24.464Z,93.00
2019-05-09T21:44:51.408Z,93.00
2019-05-09T21:47:18.354Z,93.10
2019-05-09T21:49:45.292Z,93.30
2019-05-09T21:52:12.236Z,93.10
2019-05-09T21:54:39.268Z,93.30
2019-05-09T21:57:06.195Z,93.30
2019-05-09T21:59:33.133Z,93.20
2019-05-09T22:02:01.291Z,92.90
2019-05-09T22:04:28.220Z,93.40
2019-05-09T22:06:55.163Z,93.20
2019-05-09T22:09:22.401Z,93.30
2019-05-09T22:11:49.350Z,93.90
2019-05-09T22:14:16.321Z,93.60
2019-05-09T22:16:43.281Z,93.70
2019-05-09T22:19:10.332Z,93.90
2019-05-09T22:21:37.234Z,94.10
2019-05-09T22:24:04.193Z,94.30
2019-05-09T22:26:31.124Z,94.40
2019-05-09T22:28:58.071Z,94.60
2019-05-09T22:31:24.996Z,94.60
2019-05-09T22:33:51.923Z,94.70
2019-05-09T22:36:18.962Z,94.70
2019-05-09T22:38:45.799Z,94.80
2019-05-09T22:41:12.717Z,94.80
2019-05-09T22:43:39.677Z,94.80
2019-05-09T22:46:06.601Z,94.80
2019-05-09T22:48:33.526Z,94.80
2019-05-09T22:51:00.480Z,94.80
2019-05-09T22:53:27.408Z,94.60
2019-05-09T22:55:54.331Z,94.70
2019-05-09T22:58:21.267Z,94.80
2019-05-09T23:00:48.204Z,94.60
2019-05-09T23:03:15.563Z,94.70
2019-05-09T23:05:42.499Z,94.70
2019-05-09T23:08:09.428Z,94.60
2019-05-09T23:10:36.368Z,94.60
2019-05-09T23:13:03.303Z,94.50
2019-05-09T23:15:30.252Z,94.30
2019-05-09T23:17:57.168Z,95.00
2019-05-09T23:20:29.880Z,94.70
2019-05-09T23:22:56.817Z,94.70
2019-05-09T23:25:23.732Z,94.30
2019-05-09T23:27:50.688Z,95.10
2019-05-09T23:30:17.607Z,95.70
2019-05-09T23:32:45.137Z,95.90
2019-05-09T23:35:12.084Z,95.60
2019-05-09T23:37:39.005Z,96.00
2019-05-09T23:40:05.993Z,95.60
2019-05-09T23:42:32.937Z,95.70
2019-05-09T23:44:59.872Z,95.70
2019-05-09T23:47:26.800Z,95.50
2019-05-09T23:49:53.753Z,95.60
2019-05-09T23:52:20.680Z,95.30
2019-05-09T23:54:53.484Z,95.20
2019-05-09T23:57:26.124Z,95.00
2019-05-09T23:59:58.679Z,95.10
